Iselin, New Jersey
Current Conditions -  °F | °C
As of 4:35 AM on Monday 24 Nov 2014 (Local Time) from KLDJ Reporting Station
Drizzle Drizzle  
Wind Chill: 65°   Ceiling: 1400
Heat Index: 65°   Visibility: 7mi
Dew Point: 63°   Wind: 16mph
Humidity: 92%   Direction: 170°S
Pressure: 29.74"   Gusts: 24mph
Location:  40.57°N, 74.32°W
Report Text: KLDJ 240935Z AUTO 17014G21KT 7SM DZ BKN014 OVC021 18/17 A2974 RMK AO2 P0005 T01830170
Loading
Personal Weather Stations






























Interactive Weather Map New forecast layout! Learn more

10-Day Weather Forecast

Advertisements
Track Severe Weather on mobile